Time;durP1;ratioP1;P1;durP2;ratioP2;P2;SDS_P1;SDS_P2;PMS_P1;PMS_P2;Temp;Humidity;BMP_temperature;BMP_pressure;BME280_temperature;BME280_humidity;BME280_pressure;Samples;Min_cycle;Max_cycle;Signal;HPM_P1;HPM_P2
2023/09/12 00:00:06;;;;;;;2.38;1.30;;;;;;;;;;5130136;28;20061;-72
2023/09/12 00:02:33;;;;;;;3.05;1.50;;;;;;;;;;5130359;28;20126;-70
2023/09/12 00:05:00;;;;;;;1.63;1.13;;;;;;;;;;5129973;28;20498;-72
2023/09/12 00:07:26;;;;;;;1.65;1.20;;;;;;;;;;5130266;28;20081;-72
2023/09/12 00:09:53;;;;;;;2.92;1.40;;;;;;;;;;5129384;27;20057;-71
2023/09/12 00:12:23;;;;;;;3.33;1.52;;;;;;;;;;5129753;28;20050;-69
2023/09/12 00:14:51;;;;;;;2.88;1.38;;;;;;;;;;5130029;27;20092;-70
2023/09/12 00:17:17;;;;;;;3.38;1.77;;;;;;;;;;5130092;28;20050;-72
2023/09/12 00:19:44;;;;;;;2.55;1.40;;;;;;;;;;5129831;28;20047;-72
2023/09/12 00:22:11;;;;;;;3.10;1.40;;;;;;;;;;5129847;28;20043;-71
2023/09/12 00:24:38;;;;;;;1.58;1.00;;;;;;;;;;5129514;27;20054;-72
2023/09/12 00:27:05;;;;;;;1.88;1.23;;;;;;;;;;5129660;28;20057;-72
2023/09/12 00:29:32;;;;;;;2.47;1.33;;;;;;;;;;5129308;28;20047;-71
2023/09/12 00:31:59;;;;;;;2.25;1.20;;;;;;;;;;5130362;28;20043;-72
2023/09/12 00:34:26;;;;;;;2.58;1.30;;;;;;;;;;5129726;27;20478;-72
2023/09/12 00:36:52;;;;;;;3.00;1.25;;;;;;;;;;5129918;27;20047;-72
2023/09/12 00:39:19;;;;;;;1.70;1.10;;;;;;;;;;5129432;27;20046;-71
2023/09/12 00:41:46;;;;;;;2.10;1.40;;;;;;;;;;5129606;28;20056;-72
2023/09/12 00:44:12;;;;;;;2.38;1.40;;;;;;;;;;5129464;28;20639;-72
2023/09/12 00:46:40;;;;;;;2.97;1.27;;;;;;;;;;5129713;28;20043;-72
2023/09/12 00:49:08;;;;;;;2.80;1.38;;;;;;;;;;5129571;27;20130;-69
2023/09/12 00:51:35;;;;;;;2.05;1.20;;;;;;;;;;5132305;27;20555;-69
2023/09/12 00:54:02;;;;;;;2.22;1.25;;;;;;;;;;5133233;27;20043;-69
2023/09/12 00:56:29;;;;;;;3.97;1.30;;;;;;;;;;5132918;27;20130;-73
2023/09/12 00:58:57;;;;;;;1.65;1.00;;;;;;;;;;5133290;27;20043;-69
2023/09/12 01:01:24;;;;;;;2.53;1.10;;;;;;;;;;5132564;27;20449;-71
2023/09/12 01:03:51;;;;;;;2.20;1.30;;;;;;;;;;5132867;27;20650;-72
2023/09/12 01:06:21;;;;;;;2.00;1.02;;;;;;;;;;5132927;27;20047;-72
2023/09/12 01:08:48;;;;;;;;;;;;;;;;;;5133342;27;20483;-70
2023/09/12 01:11:17;;;;;;;2.22;1.17;;;;;;;;;;5132501;27;19919;-71
2023/09/12 01:13:43;;;;;;;2.10;1.10;;;;;;;;;;5133402;27;20043;-71
2023/09/12 01:16:10;;;;;;;1.23;0.88;;;;;;;;;;5132865;27;20047;-71
2023/09/12 01:18:37;;;;;;;1.70;1.15;;;;;;;;;;5133026;27;20116;-72
2023/09/12 01:21:36;;;;;;;1.73;0.98;;;;;;;;;;5132640;27;20044;-72
2023/09/12 01:24:41;;;;;;;1.90;0.93;;;;;;;;;;5132480;27;20051;-69
2023/09/12 01:27:21;;;;;;;1.50;1.10;;;;;;;;;;5132890;27;20131;-68
2023/09/12 01:29:51;;;;;;;1.67;1.13;;;;;;;;;;5132951;27;20061;-70
2023/09/12 01:32:20;;;;;;;2.05;1.20;;;;;;;;;;5132642;27;20047;-71
2023/09/12 01:34:46;;;;;;;1.48;1.10;;;;;;;;;;5132859;27;20043;-72
2023/09/12 01:37:14;;;;;;;1.83;1.20;;;;;;;;;;5132201;27;20043;-72
2023/09/12 01:39:42;;;;;;;2.70;1.40;;;;;;;;;;5132242;27;20126;-71
2023/09/12 01:42:14;;;;;;;2.42;1.10;;;;;;;;;;5131670;27;20054;-71
2023/09/12 01:44:43;;;;;;;2.47;1.10;;;;;;;;;;5132225;27;20049;-71
2023/09/12 01:47:12;;;;;;;1.42;1.10;;;;;;;;;;5132107;27;20050;-70
2023/09/12 01:49:42;;;;;;;2.22;1.20;;;;;;;;;;5132646;27;20054;-69
2023/09/12 01:52:10;;;;;;;2.85;1.20;;;;;;;;;;5132214;27;20043;-72
2023/09/12 01:54:38;;;;;;;3.72;1.40;;;;;;;;;;5131890;27;20058;-71
2023/09/12 01:57:05;;;;;;;3.08;1.55;;;;;;;;;;5131993;27;20227;-72
2023/09/12 01:59:32;;;;;;;3.50;1.50;;;;;;;;;;5132072;27;20051;-69
2023/09/12 02:01:59;;;;;;;2.80;1.40;;;;;;;;;;5131326;27;20043;-69
2023/09/12 02:04:25;;;;;;;3.33;1.60;;;;;;;;;;5131835;27;20412;-73
2023/09/12 02:06:52;;;;;;;5.40;1.33;;;;;;;;;;5131738;27;20054;-69
2023/09/12 02:09:19;;;;;;;3.45;1.42;;;;;;;;;;5131755;27;20050;-70
2023/09/12 02:11:46;;;;;;;2.20;1.40;;;;;;;;;;5131702;27;20126;-69
2023/09/12 02:14:12;;;;;;;3.80;1.67;;;;;;;;;;5131809;27;20047;-68
2023/09/12 02:16:39;;;;;;;4.43;1.60;;;;;;;;;;5131253;27;20137;-69
2023/09/12 02:19:10;;;;;;;3.80;1.75;;;;;;;;;;5131426;27;20043;-69
2023/09/12 02:21:37;;;;;;;3.28;1.67;;;;;;;;;;5131124;27;20061;-71
2023/09/12 02:24:04;;;;;;;4.85;1.75;;;;;;;;;;5131580;27;20094;-69
2023/09/12 02:26:35;;;;;;;4.13;1.90;;;;;;;;;;5131195;27;20039;-69
2023/09/12 02:29:05;;;;;;;3.63;1.70;;;;;;;;;;5131839;27;20050;-70
2023/09/12 02:31:32;;;;;;;3.28;1.42;;;;;;;;;;5130969;27;20043;-71
2023/09/12 02:33:59;;;;;;;3.35;1.67;;;;;;;;;;5131150;27;20047;-70
2023/09/12 02:36:26;;;;;;;2.90;1.65;;;;;;;;;;5131012;27;20495;-71
2023/09/12 02:38:52;;;;;;;2.78;1.25;;;;;;;;;;5131424;27;20043;-71
2023/09/12 02:41:19;;;;;;;2.60;1.65;;;;;;;;;;5130723;27;20058;-70
2023/09/12 02:43:46;;;;;;;2.53;1.30;;;;;;;;;;5131504;27;20047;-72
2023/09/12 02:46:12;;;;;;;2.63;1.60;;;;;;;;;;5131427;27;20082;-69
2023/09/12 02:48:39;;;;;;;3.22;1.58;;;;;;;;;;5112807;27;20481;-72
2023/09/12 02:51:06;;;;;;;3.20;2.08;;;;;;;;;;5130458;27;20498;-69
2023/09/12 02:53:33;;;;;;;1.88;1.20;;;;;;;;;;5130766;27;20039;-72
2023/09/12 02:55:59;;;;;;;3.05;1.50;;;;;;;;;;5130745;27;20047;-68
2023/09/12 02:58:26;;;;;;;2.78;1.80;;;;;;;;;;5130975;27;20043;-71
2023/09/12 03:00:54;;;;;;;1.67;1.33;;;;;;;;;;5131062;27;20050;-71
2023/09/12 03:03:21;;;;;;;3.35;1.52;;;;;;;;;;5130244;27;20092;-70
2023/09/12 03:05:59;;;;;;;3.38;1.45;;;;;;;;;;5131025;27;20043;-72
2023/09/12 03:08:26;;;;;;;3.53;1.52;;;;;;;;;;5130350;27;20178;-71
2023/09/12 03:10:56;;;;;;;2.22;1.60;;;;;;;;;;5130591;27;20058;-71
2023/09/12 03:13:25;;;;;;;2.67;1.70;;;;;;;;;;5130184;27;20510;-71
2023/09/12 03:15:52;;;;;;;3.08;1.50;;;;;;;;;;5130680;27;20079;-69
2023/09/12 03:18:19;;;;;;;3.05;1.83;;;;;;;;;;5130729;27;20043;-72
2023/09/12 03:20:46;;;;;;;5.07;1.88;;;;;;;;;;5130476;27;20047;-69
2023/09/12 03:23:13;;;;;;;3.10;1.75;;;;;;;;;;5129891;27;20593;-70
2023/09/12 03:25:39;;;;;;;3.83;1.90;;;;;;;;;;5130221;27;20046;-71
2023/09/12 03:28:07;;;;;;;2.95;1.50;;;;;;;;;;5130079;27;20103;-71
2023/09/12 03:30:37;;;;;;;3.60;1.73;;;;;;;;;;5130557;27;20051;-71
2023/09/12 03:33:05;;;;;;;3.03;1.80;;;;;;;;;;5129936;27;20452;-71
2023/09/12 03:35:33;;;;;;;3.15;1.85;;;;;;;;;;5130679;27;20114;-72
2023/09/12 03:38:00;;;;;;;3.65;1.90;;;;;;;;;;5129437;27;20043;-72
2023/09/12 03:40:30;;;;;;;2.47;1.65;;;;;;;;;;5130491;27;20434;-73
2023/09/12 03:42:57;;;;;;;3.47;1.90;;;;;;;;;;5129504;27;20079;-69
2023/09/12 03:45:24;;;;;;;3.97;1.65;;;;;;;;;;5130370;27;20043;-69
2023/09/12 03:47:51;;;;;;;3.03;1.80;;;;;;;;;;5129887;28;20043;-71
2023/09/12 03:50:18;;;;;;;2.20;1.50;;;;;;;;;;5130216;28;20043;-69
2023/09/12 03:52:45;;;;;;;4.03;1.77;;;;;;;;;;5129760;27;20041;-69
2023/09/12 03:55:12;;;;;;;2.88;1.80;;;;;;;;;;5130342;28;20095;-72
2023/09/12 03:57:38;;;;;;;3.13;1.90;;;;;;;;;;5130042;27;20051;-69
2023/09/12 04:00:06;;;;;;;3.75;1.50;;;;;;;;;;5130554;28;20129;-69
2023/09/12 04:02:32;;;;;;;2.65;1.70;;;;;;;;;;5129511;28;20712;-68
2023/09/12 04:04:59;;;;;;;2.47;1.55;;;;;;;;;;5129823;28;20047;-70
2023/09/12 04:07:26;;;;;;;4.30;1.77;;;;;;;;;;5129691;28;20418;-71
2023/09/12 04:09:53;;;;;;;2.65;1.80;;;;;;;;;;5130066;28;20043;-68
2023/09/12 04:12:19;;;;;;;5.18;2.17;;;;;;;;;;5129919;28;20130;-68
2023/09/12 04:14:49;;;;;;;3.05;1.75;;;;;;;;;;5129998;27;20555;-69
2023/09/12 04:17:15;;;;;;;3.72;1.50;;;;;;;;;;5130061;28;20046;-72
2023/09/12 04:19:42;;;;;;;3.83;1.80;;;;;;;;;;5130090;28;20043;-72
2023/09/12 04:22:09;;;;;;;5.97;2.20;;;;;;;;;;5129164;28;20065;-70
2023/09/12 04:24:35;;;;;;;2.80;1.70;;;;;;;;;;5129924;27;20048;-72
2023/09/12 04:27:03;;;;;;;3.63;1.77;;;;;;;;;;5134038;27;20047;-72
2023/09/12 04:29:37;;;;;;;2.80;1.80;;;;;;;;;;5133938;27;20040;-72
2023/09/12 04:32:04;;;;;;;2.60;1.48;;;;;;;;;;5133847;27;20043;-69
2023/09/12 04:34:31;;;;;;;4.50;1.92;;;;;;;;;;5134198;27;20135;-72
2023/09/12 04:36:58;;;;;;;4.20;1.70;;;;;;;;;;5133596;27;20043;-70
2023/09/12 04:39:25;;;;;;;2.45;1.58;;;;;;;;;;5133471;27;20128;-70
2023/09/12 04:41:51;;;;;;;3.15;1.55;;;;;;;;;;5133334;27;20061;-71
2023/09/12 04:44:18;;;;;;;2.08;1.48;;;;;;;;;;5132990;27;20047;-71
2023/09/12 04:46:46;;;;;;;3.05;1.50;;;;;;;;;;5133611;27;20051;-69
2023/09/12 04:49:13;;;;;;;1.83;1.27;;;;;;;;;;5133538;27;20078;-70
2023/09/12 04:51:39;;;;;;;2.67;1.60;;;;;;;;;;5133390;27;20059;-70
2023/09/12 04:54:06;;;;;;;3.92;1.63;;;;;;;;;;5133326;27;20043;-71
2023/09/12 04:56:33;;;;;;;2.08;1.30;;;;;;;;;;5133458;27;20070;-70
2023/09/12 04:58:59;;;;;;;3.30;1.83;;;;;;;;;;5133061;27;20047;-69
2023/09/12 05:01:26;;;;;;;6.60;1.80;;;;;;;;;;5133168;27;20483;-69
2023/09/12 05:03:53;;;;;;;2.75;1.80;;;;;;;;;;5114410;27;20047;-72
2023/09/12 05:06:20;;;;;;;2.40;1.73;;;;;;;;;;5133123;27;20043;-71
2023/09/12 05:08:46;;;;;;;2.65;1.60;;;;;;;;;;5132896;27;20047;-72
2023/09/12 05:11:13;;;;;;;2.17;1.50;;;;;;;;;;5132878;27;20047;-72
2023/09/12 05:13:40;;;;;;;3.58;1.63;;;;;;;;;;5132530;27;20055;-69
2023/09/12 05:16:07;;;;;;;3.13;2.00;;;;;;;;;;5132639;27;20043;-69
2023/09/12 05:18:34;;;;;;;4.88;1.65;;;;;;;;;;5132533;27;20477;-70
2023/09/12 05:21:01;;;;;;;2.00;1.48;;;;;;;;;;5132741;27;20057;-70
2023/09/12 05:23:28;;;;;;;4.63;1.65;;;;;;;;;;5132346;27;20043;-69
2023/09/12 05:25:55;;;;;;;2.95;1.77;;;;;;;;;;5133029;27;20051;-71
2023/09/12 05:28:21;;;;;;;1.95;1.33;;;;;;;;;;5132413;27;20069;-71
2023/09/12 05:30:48;;;;;;;2.70;1.60;;;;;;;;;;5132848;27;20044;-70
2023/09/12 05:33:16;;;;;;;2.05;1.35;;;;;;;;;;5131996;27;20051;-70
2023/09/12 05:35:46;;;;;;;3.03;1.35;;;;;;;;;;5132454;27;20039;-71
2023/09/12 05:38:13;;;;;;;2.63;1.47;;;;;;;;;;5132546;27;20063;-72
2023/09/12 05:40:39;;;;;;;2.70;1.42;;;;;;;;;;5132592;27;20075;-69
2023/09/12 05:43:06;;;;;;;2.03;1.35;;;;;;;;;;5132016;27;20108;-68
2023/09/12 05:45:33;;;;;;;3.17;1.80;;;;;;;;;;5132485;27;20058;-72
2023/09/12 05:48:00;;;;;;;2.58;1.67;;;;;;;;;;5132592;27;20144;-69
2023/09/12 05:50:27;;;;;;;2.38;1.60;;;;;;;;;;5132049;27;20529;-69
2023/09/12 05:52:53;;;;;;;3.58;1.83;;;;;;;;;;5131760;27;20047;-68
2023/09/12 05:55:20;;;;;;;2.33;1.60;;;;;;;;;;5131832;27;20043;-68
2023/09/12 05:57:52;;;;;;;2.20;1.58;;;;;;;;;;5131998;27;20073;-68
2023/09/12 06:00:20;;;;;;;2.28;1.42;;;;;;;;;;5132114;27;20072;-71
2023/09/12 06:02:47;;;;;;;2.95;1.75;;;;;;;;;;5131720;27;20297;-69
2023/09/12 06:05:15;;;;;;;2.75;1.70;;;;;;;;;;5131817;27;20070;-69
2023/09/12 06:07:43;;;;;;;3.13;1.60;;;;;;;;;;5131709;27;20039;-69
2023/09/12 06:10:09;;;;;;;2.45;1.50;;;;;;;;;;5113595;27;20050;-69
2023/09/12 06:12:39;;;;;;;2.65;1.65;;;;;;;;;;5131905;27;20135;-69
2023/09/12 06:15:09;;;;;;;3.13;1.58;;;;;;;;;;5131596;27;20074;-70
2023/09/12 06:17:35;;;;;;;3.10;1.73;;;;;;;;;;5131774;27;20039;-72
2023/09/12 06:20:06;;;;;;;2.90;1.48;;;;;;;;;;5131465;27;20583;-69
2023/09/12 06:22:33;;;;;;;2.85;1.80;;;;;;;;;;5131612;27;20131;-69
2023/09/12 06:25:00;;;;;;;3.25;1.48;;;;;;;;;;5131152;27;20083;-72
2023/09/12 06:27:27;;;;;;;2.15;1.40;;;;;;;;;;5131477;27;20043;-68
2023/09/12 06:29:54;;;;;;;3.03;1.55;;;;;;;;;;5131500;27;20039;-67
2023/09/12 06:32:20;;;;;;;2.60;1.73;;;;;;;;;;5131365;27;20038;-68
2023/09/12 06:34:47;;;;;;;2.65;1.80;;;;;;;;;;5131297;27;20049;-70
2023/09/12 06:37:14;;;;;;;3.83;1.90;;;;;;;;;;5131461;27;20448;-70
2023/09/12 06:39:41;;;;;;;1.75;1.23;;;;;;;;;;5130840;27;20043;-71
2023/09/12 06:42:09;;;;;;;2.60;1.40;;;;;;;;;;5130991;27;20200;-68
2023/09/12 06:44:35;;;;;;;3.08;1.60;;;;;;;;;;5130759;27;20074;-69
2023/09/12 06:47:04;;;;;;;3.33;1.75;;;;;;;;;;5130887;27;20043;-67
2023/09/12 06:49:35;;;;;;;2.70;1.55;;;;;;;;;;5130703;27;20065;-67
2023/09/12 06:52:03;;;;;;;2.22;1.58;;;;;;;;;;5131244;27;20062;-71
2023/09/12 06:54:30;;;;;;;2.67;1.55;;;;;;;;;;5130414;27;20043;-68
2023/09/12 06:56:57;;;;;;;2.38;1.52;;;;;;;;;;5131231;27;20043;-67
2023/09/12 06:59:23;;;;;;;4.45;1.90;;;;;;;;;;5130533;27;20130;-70
2023/09/12 07:01:50;;;;;;;3.72;1.83;;;;;;;;;;5130725;27;20050;-68
2023/09/12 07:04:17;;;;;;;2.20;1.33;;;;;;;;;;5129964;27;20707;-67
2023/09/12 07:06:43;;;;;;;2.97;1.35;;;;;;;;;;5130947;27;20613;-67
2023/09/12 07:09:14;;;;;;;2.85;1.63;;;;;;;;;;5130251;27;20493;-68
2023/09/12 07:11:41;;;;;;;;;;;;;;;;;;5131568;27;20107;-69
2023/09/12 07:14:09;;;;;;;2.60;1.48;;;;;;;;;;5130626;27;19929;-67
2023/09/12 07:16:37;;;;;;;2.28;1.60;;;;;;;;;;5130507;27;20082;-68
2023/09/12 07:19:04;;;;;;;4.38;1.80;;;;;;;;;;5130547;27;20071;-67
2023/09/12 07:21:31;;;;;;;2.70;1.70;;;;;;;;;;5130349;27;20425;-67
2023/09/12 07:23:58;;;;;;;3.08;1.70;;;;;;;;;;5130592;27;20122;-67
2023/09/12 07:26:25;;;;;;;2.20;1.40;;;;;;;;;;5130387;27;20528;-67
2023/09/12 07:28:54;;;;;;;1.77;1.30;;;;;;;;;;5130836;27;20043;-69
2023/09/12 07:31:21;;;;;;;2.45;1.45;;;;;;;;;;5130449;27;20050;-68
2023/09/12 07:33:48;;;;;;;3.65;1.58;;;;;;;;;;5130467;27;20050;-70
2023/09/12 07:36:15;;;;;;;2.42;1.30;;;;;;;;;;5130344;27;20051;-70
2023/09/12 07:38:42;;;;;;;3.10;1.60;;;;;;;;;;5130484;27;20043;-70
2023/09/12 07:41:09;;;;;;;2.15;1.55;;;;;;;;;;5130183;27;20075;-68
2023/09/12 07:43:36;;;;;;;2.53;1.48;;;;;;;;;;5130779;27;20043;-68
2023/09/12 07:46:03;;;;;;;2.92;1.60;;;;;;;;;;5130281;27;20078;-70
2023/09/12 07:48:30;;;;;;;2.17;1.50;;;;;;;;;;5130169;28;20082;-68
2023/09/12 07:50:57;;;;;;;3.00;1.40;;;;;;;;;;5130108;28;20043;-69
2023/09/12 07:53:23;;;;;;;3.15;1.73;;;;;;;;;;5130258;28;20051;-70
2023/09/12 07:55:50;;;;;;;3.67;2.05;;;;;;;;;;5111899;28;20053;-70
2023/09/12 07:58:24;;;;;;;4.40;2.47;;;;;;;;;;5129908;28;20549;-70
2023/09/12 08:00:50;;;;;;;4.88;2.75;;;;;;;;;;5134244;27;20043;-70
2023/09/12 08:03:17;;;;;;;6.15;2.75;;;;;;;;;;5134624;27;20127;-69
2023/09/12 08:05:54;;;;;;;4.03;2.42;;;;;;;;;;5134495;27;20100;-69
2023/09/12 08:08:21;;;;;;;3.70;2.58;;;;;;;;;;5134042;27;20553;-70
2023/09/12 08:10:47;;;;;;;3.90;2.47;;;;;;;;;;5134239;27;20055;-71
2023/09/12 08:13:14;;;;;;;3.35;2.15;;;;;;;;;;5116081;27;20054;-71
2023/09/12 08:15:41;;;;;;;4.80;2.03;;;;;;;;;;5133871;27;20107;-71
2023/09/12 08:18:07;;;;;;;4.07;2.72;;;;;;;;;;5133927;27;20396;-70
2023/09/12 08:20:34;;;;;;;4.40;2.35;;;;;;;;;;5133694;27;20494;-67
2023/09/12 08:23:01;;;;;;;6.50;2.38;;;;;;;;;;5133794;27;20483;-68
2023/09/12 08:25:27;;;;;;;3.15;2.00;;;;;;;;;;5133571;27;20058;-70
2023/09/12 08:27:54;;;;;;;5.80;2.28;;;;;;;;;;5133797;27;20047;-68
2023/09/12 08:30:21;;;;;;;4.70;2.17;;;;;;;;;;5133331;27;20130;-68
2023/09/12 08:32:51;;;;;;;2.10;1.60;;;;;;;;;;5133507;27;20576;-67
2023/09/12 08:35:17;;;;;;;4.20;2.08;;;;;;;;;;5133348;27;20054;-67
2023/09/12 08:37:44;;;;;;;4.40;2.10;;;;;;;;;;5133529;27;20040;-67
2023/09/12 08:40:12;;;;;;;4.95;2.28;;;;;;;;;;5133633;27;20047;-70
2023/09/12 08:42:43;;;;;;;4.38;1.98;;;;;;;;;;5133443;27;20055;-67
2023/09/12 08:45:15;;;;;;;5.28;2.35;;;;;;;;;;5133152;27;20498;-68
2023/09/12 08:47:44;;;;;;;4.30;2.30;;;;;;;;;;5133133;27;20046;-68
2023/09/12 08:50:14;;;;;;;2.83;1.90;;;;;;;;;;5133345;27;20426;-69
2023/09/12 08:52:42;;;;;;;2.88;2.03;;;;;;;;;;5133237;27;20616;-70
2023/09/12 08:55:21;;;;;;;4.47;1.80;;;;;;;;;;5133057;27;20498;-67
2023/09/12 08:57:50;;;;;;;4.53;2.03;;;;;;;;;;5133285;27;20111;-67
2023/09/12 09:00:17;;;;;;;3.25;1.80;;;;;;;;;;5133197;27;20043;-67
2023/09/12 09:02:45;;;;;;;4.60;2.30;;;;;;;;;;5133318;27;20039;-68
2023/09/12 09:05:12;;;;;;;2.92;1.88;;;;;;;;;;5132876;27;20058;-69
2023/09/12 09:07:40;;;;;;;3.15;1.90;;;;;;;;;;5132668;27;20448;-67
2023/09/12 09:10:10;;;;;;;5.30;2.45;;;;;;;;;;5132909;27;20051;-68
2023/09/12 09:12:39;;;;;;;4.32;2.15;;;;;;;;;;5132235;27;20051;-69
2023/09/12 09:15:25;;;;;;;4.63;2.40;;;;;;;;;;5133139;27;20184;-67
2023/09/12 09:17:55;;;;;;;3.92;2.10;;;;;;;;;;5133058;27;20049;-68
2023/09/12 09:20:31;;;;;;;6.63;2.50;;;;;;;;;;5132876;27;20126;-67
2023/09/12 09:22:58;;;;;;;4.25;2.28;;;;;;;;;;5133021;27;20043;-67
2023/09/12 09:25:25;;;;;;;6.13;2.85;;;;;;;;;;5132588;27;20446;-67
2023/09/12 09:27:52;;;;;;;4.00;2.47;;;;;;;;;;5132126;27;20105;-71
2023/09/12 09:30:39;;;;;;;4.50;2.42;;;;;;;;;;5132639;27;20047;-71
2023/09/12 09:33:06;;;;;;;4.07;2.40;;;;;;;;;;5133109;27;20070;-69
2023/09/12 09:35:34;;;;;;;3.22;2.28;;;;;;;;;;5132642;27;20522;-69
2023/09/12 09:38:00;;;;;;;2.70;1.77;;;;;;;;;;5132380;27;20043;-70
2023/09/12 09:40:27;;;;;;;7.25;2.20;;;;;;;;;;5132489;27;20039;-70
2023/09/12 09:42:56;;;;;;;4.05;2.03;;;;;;;;;;5132217;27;20062;-69
2023/09/12 09:45:23;;;;;;;5.30;2.28;;;;;;;;;;5132350;27;20047;-69
2023/09/12 09:47:56;;;;;;;4.65;1.92;;;;;;;;;;5132582;27;20039;-71
2023/09/12 09:50:23;;;;;;;2.85;1.58;;;;;;;;;;5132583;27;20451;-68
2023/09/12 09:52:55;;;;;;;4.05;2.10;;;;;;;;;;5114092;27;20074;-69
2023/09/12 09:55:22;;;;;;;3.88;2.10;;;;;;;;;;5132530;27;20050;-67
2023/09/12 09:57:53;;;;;;;2.50;1.50;;;;;;;;;;5131835;27;20494;-71
2023/09/12 10:00:23;;;;;;;5.18;1.80;;;;;;;;;;5132288;27;20099;-68
2023/09/12 10:02:54;;;;;;;2.95;1.67;;;;;;;;;;5132058;27;20122;-70
2023/09/12 10:05:23;;;;;;;2.83;1.83;;;;;;;;;;5132157;27;20043;-71
2023/09/12 10:07:51;;;;;;;3.03;1.50;;;;;;;;;;5132074;27;20391;-70
2023/09/12 10:10:19;;;;;;;2.35;1.50;;;;;;;;;;5131849;27;20287;-68
2023/09/12 10:12:54;;;;;;;2.85;1.63;;;;;;;;;;5132074;27;20048;-69
2023/09/12 10:15:22;;;;;;;2.33;1.45;;;;;;;;;;5132164;27;20104;-70
2023/09/12 10:17:58;;;;;;;3.63;1.73;;;;;;;;;;5131936;27;20043;-71
2023/09/12 10:20:32;;;;;;;3.40;1.58;;;;;;;;;;5131954;27;20130;-70
2023/09/12 10:23:14;;;;;;;5.07;1.77;;;;;;;;;;5130665;27;20089;-67
2023/09/12 10:25:43;;;;;;;4.30;1.83;;;;;;;;;;5132075;27;20131;-68
2023/09/12 10:28:12;;;;;;;4.00;1.70;;;;;;;;;;5131549;27;20046;-68
2023/09/12 10:30:39;;;;;;;3.75;1.65;;;;;;;;;;5131736;27;20040;-68
2023/09/12 10:33:08;;;;;;;2.65;1.63;;;;;;;;;;5131487;27;20043;-68
2023/09/12 10:35:35;;;;;;;4.80;1.90;;;;;;;;;;5131773;27;20055;-67
2023/09/12 10:38:05;;;;;;;2.58;1.58;;;;;;;;;;5131188;27;20505;-70
2023/09/12 10:40:36;;;;;;;2.80;1.80;;;;;;;;;;5131469;27;20141;-68
2023/09/12 10:43:10;;;;;;;4.13;1.85;;;;;;;;;;5131100;27;20457;-68
2023/09/12 10:45:37;;;;;;;4.18;1.88;;;;;;;;;;5131516;27;20142;-67
2023/09/12 10:48:04;;;;;;;4.28;1.80;;;;;;;;;;5131096;27;20608;-70
2023/09/12 10:50:31;;;;;;;4.00;1.75;;;;;;;;;;5131295;27;20039;-70
2023/09/12 10:53:19;;;;;;;3.05;1.73;;;;;;;;;;5130582;27;20418;-68
2023/09/12 10:56:08;;;;;;;2.40;1.58;;;;;;;;;;5130890;27;20096;-71
2023/09/12 10:59:15;;;;;;;2.60;1.60;;;;;;;;;;5131140;27;20039;-70
2023/09/12 11:01:45;;;;;;;3.50;1.70;;;;;;;;;;5131041;27;20047;-67
2023/09/12 11:04:24;;;;;;;2.78;1.77;;;;;;;;;;5131202;27;20050;-67
2023/09/12 11:06:51;;;;;;;2.90;1.67;;;;;;;;;;5130923;27;20054;-68
2023/09/12 11:09:21;;;;;;;2.80;1.67;;;;;;;;;;5130563;27;20581;-69
2023/09/12 11:12:28;;;;;;;4.03;1.70;;;;;;;;;;5130960;27;20092;-71
2023/09/12 11:15:06;;;;;;;2.75;1.65;;;;;;;;;;5130606;27;20120;-70
2023/09/12 11:17:43;;;;;;;3.92;2.08;;;;;;;;;;5130899;27;20100;-70
2023/09/12 11:20:11;;;;;;;3.63;1.95;;;;;;;;;;5130784;27;20044;-69
2023/09/12 11:22:40;;;;;;;3.08;1.55;;;;;;;;;;5112142;27;20062;-67
2023/09/12 11:25:26;;;;;;;3.22;1.83;;;;;;;;;;5130603;27;20513;-67
2023/09/12 11:27:53;;;;;;;3.30;2.10;;;;;;;;;;5130367;27;20051;-67
2023/09/12 11:30:23;;;;;;;3.67;2.15;;;;;;;;;;5130541;27;20043;-67
2023/09/12 11:32:53;;;;;;;4.53;1.92;;;;;;;;;;5130510;27;20047;-70
2023/09/12 11:35:25;;;;;;;;;;;;;;;;;;5130810;27;20075;-70
2023/09/12 11:37:52;;;;;;;;;;;;;;;;;;5130563;27;19919;-70
2023/09/12 11:40:23;;;;;;;2.72;1.65;;;;;;;;;;5130633;27;19980;-71
2023/09/12 11:42:50;;;;;;;5.38;1.90;;;;;;;;;;5130202;27;20129;-68
2023/09/12 11:45:19;;;;;;;4.53;1.80;;;;;;;;;;5130471;27;20074;-67
2023/09/12 11:47:46;;;;;;;2.35;1.75;;;;;;;;;;5130102;27;20066;-67
2023/09/12 11:50:27;;;;;;;2.65;1.70;;;;;;;;;;5130210;28;20047;-67
2023/09/12 11:53:04;;;;;;;3.75;1.83;;;;;;;;;;5130318;28;20039;-67
2023/09/12 11:55:32;;;;;;;3.10;1.83;;;;;;;;;;5130685;28;20051;-70
2023/09/12 11:57:59;;;;;;;3.50;2.00;;;;;;;;;;5130219;28;20039;-70
2023/09/12 12:00:27;;;;;;;3.65;1.98;;;;;;;;;;5130072;28;20452;-68
2023/09/12 12:02:55;;;;;;;3.03;1.73;;;;;;;;;;5130267;28;20051;-67
2023/09/12 12:05:22;;;;;;;5.32;1.80;;;;;;;;;;5130177;28;20074;-67
2023/09/12 12:07:50;;;;;;;3.35;1.70;;;;;;;;;;5129790;28;20133;-68
2023/09/12 12:10:17;;;;;;;2.60;1.73;;;;;;;;;;5129940;27;20053;-69
2023/09/12 12:12:46;;;;;;;4.15;1.85;;;;;;;;;;5130312;28;20047;-68
2023/09/12 12:15:13;;;;;;;4.13;1.70;;;;;;;;;;5130549;28;20071;-71
2023/09/12 12:17:41;;;;;;;3.67;2.08;;;;;;;;;;5129958;28;20043;-70
2023/09/12 12:20:11;;;;;;;2.70;1.90;;;;;;;;;;5130139;28;20049;-70
2023/09/12 12:22:40;;;;;;;3.15;1.90;;;;;;;;;;5129670;27;20050;-70
2023/09/12 12:25:11;;;;;;;3.35;1.70;;;;;;;;;;5129984;27;20499;-70
2023/09/12 12:27:41;;;;;;;6.00;1.70;;;;;;;;;;5130076;28;20047;-70
2023/09/12 12:30:11;;;;;;;3.70;1.90;;;;;;;;;;5130182;28;20103;-70
2023/09/12 12:32:42;;;;;;;2.97;1.77;;;;;;;;;;5130047;28;20046;-67
2023/09/12 12:35:22;;;;;;;5.40;2.00;;;;;;;;;;5130238;28;20070;-70
2023/09/12 12:38:12;;;;;;;3.85;1.85;;;;;;;;;;5129487;27;20578;-69
2023/09/12 12:40:41;;;;;;;3.20;1.87;;;;;;;;;;5111618;28;20452;-68
2023/09/12 12:43:19;;;;;;;3.78;1.90;;;;;;;;;;5129436;28;20066;-71
2023/09/12 12:45:56;;;;;;;2.38;1.58;;;;;;;;;;5130411;27;20050;-70
2023/09/12 12:50:54;;;;;;;2.63;1.75;;;;;;;;;;5050662;28;20126;-70
2023/09/12 12:53:37;;;;;;;3.55;1.60;;;;;;;;;;5052133;28;20041;-71
2023/09/12 12:56:19;;;;;;;3.20;1.85;;;;;;;;;;5052224;28;20049;-71
2023/09/12 12:58:50;;;;;;;3.10;1.80;;;;;;;;;;5052012;28;20055;-74
2023/09/12 13:01:17;;;;;;;3.72;1.80;;;;;;;;;;5051753;28;20574;-72
2023/09/12 13:03:44;;;;;;;3.25;1.95;;;;;;;;;;5052008;28;20102;-70
2023/09/12 13:06:15;;;;;;;2.53;1.80;;;;;;;;;;5051929;28;20083;-71
2023/09/12 13:08:44;;;;;;;3.63;2.03;;;;;;;;;;5051726;28;20481;-73
2023/09/12 13:11:13;;;;;;;3.67;2.05;;;;;;;;;;5051810;28;20045;-70
2023/09/12 13:13:44;;;;;;;3.35;2.20;;;;;;;;;;5051639;28;20575;-73
2023/09/12 13:16:13;;;;;;;3.25;2.30;;;;;;;;;;5051992;28;20049;-74
2023/09/12 13:18:41;;;;;;;2.97;2.10;;;;;;;;;;5051970;28;20120;-73
2023/09/12 13:21:08;;;;;;;4.82;1.90;;;;;;;;;;5051454;28;20451;-71
2023/09/12 13:23:36;;;;;;;6.18;2.08;;;;;;;;;;5051443;28;20045;-73
2023/09/12 13:26:06;;;;;;;2.67;1.73;;;;;;;;;;5051824;28;20060;-74
2023/09/12 13:28:33;;;;;;;3.33;2.10;;;;;;;;;;5051333;28;20049;-74
2023/09/12 13:30:59;;;;;;;3.83;2.08;;;;;;;;;;5051728;28;20505;-71
2023/09/12 13:33:26;;;;;;;4.50;2.25;;;;;;;;;;5051182;28;20507;-71
2023/09/12 13:35:53;;;;;;;3.03;2.08;;;;;;;;;;5051314;28;20045;-71
2023/09/12 13:38:21;;;;;;;3.25;1.83;;;;;;;;;;5050800;28;20052;-71
2023/09/12 13:40:48;;;;;;;3.67;1.90;;;;;;;;;;5051513;28;20045;-71
2023/09/12 13:43:14;;;;;;;3.28;2.25;;;;;;;;;;5051482;28;20049;-71
2023/09/12 13:45:41;;;;;;;3.17;1.98;;;;;;;;;;5051244;28;20057;-71
2023/09/12 13:48:08;;;;;;;4.97;2.08;;;;;;;;;;5051131;28;20089;-70
2023/09/12 13:50:35;;;;;;;4.07;1.98;;;;;;;;;;5050826;28;20130;-71
2023/09/12 13:53:06;;;;;;;3.30;2.40;;;;;;;;;;5050813;28;20140;-70
2023/09/12 13:55:34;;;;;;;2.80;1.95;;;;;;;;;;5050969;28;20505;-72
2023/09/12 13:58:21;;;;;;;4.03;1.80;;;;;;;;;;5050479;28;20128;-70
2023/09/12 14:00:48;;;;;;;3.25;1.83;;;;;;;;;;5051262;28;20049;-70
2023/09/12 14:03:15;;;;;;;3.83;2.20;;;;;;;;;;5050939;28;20048;-71
2023/09/12 14:05:43;;;;;;;3.20;1.98;;;;;;;;;;5050536;28;20049;-72
2023/09/12 14:08:10;;;;;;;6.00;2.20;;;;;;;;;;5050774;28;20059;-71
2023/09/12 14:10:37;;;;;;;5.93;1.92;;;;;;;;;;5050494;28;20596;-70
2023/09/12 14:13:06;;;;;;;2.88;2.00;;;;;;;;;;5050984;28;20079;-74
2023/09/12 14:15:49;;;;;;;4.05;2.35;;;;;;;;;;5050998;28;20055;-74
2023/09/12 14:18:17;;;;;;;3.83;1.88;;;;;;;;;;5050424;28;20049;-71
2023/09/12 14:20:46;;;;;;;3.00;2.10;;;;;;;;;;5050902;28;20071;-71
2023/09/12 14:23:15;;;;;;;3.58;2.28;;;;;;;;;;5050733;28;20045;-71
2023/09/12 14:25:42;;;;;;;3.45;2.05;;;;;;;;;;5050380;28;20060;-73
2023/09/12 14:28:12;;;;;;;2.80;1.95;;;;;;;;;;5050322;28;20512;-71
2023/09/12 14:30:44;;;;;;;4.82;2.30;;;;;;;;;;5050027;28;20049;-70
2023/09/12 14:33:12;;;;;;;3.60;2.00;;;;;;;;;;5050565;28;20110;-70
2023/09/12 14:35:43;;;;;;;2.97;1.90;;;;;;;;;;5050038;28;20101;-72
2023/09/12 14:38:10;;;;;;;3.25;2.30;;;;;;;;;;5050181;28;20079;-71
2023/09/12 14:40:37;;;;;;;5.40;2.30;;;;;;;;;;5050157;28;20444;-71
2023/09/12 14:43:04;;;;;;;5.30;2.20;;;;;;;;;;5050382;28;20058;-72
2023/09/12 14:45:33;;;;;;;4.20;1.90;;;;;;;;;;5049911;28;20103;-74
2023/09/12 14:47:59;;;;;;;3.38;1.90;;;;;;;;;;5050128;28;20060;-73
2023/09/12 14:50:29;;;;;;;4.22;1.95;;;;;;;;;;5065004;28;20144;-71
2023/09/12 14:53:08;;;;;;;4.38;2.40;;;;;;;;;;5049898;28;20650;-71
2023/09/12 14:55:35;;;;;;;3.60;1.98;;;;;;;;;;5064846;28;20528;-71